sensor_id;sensor_type;location;lat;lon;timestamp;P1;durP1;ratioP1;P2;durP2;ratioP2
7213;SDS011;3648;50.614;13.830;2023-02-22T00:01:33;9.20;;;6.83;;
7213;SDS011;3648;50.614;13.830;2023-02-22T00:04:14;12.23;;;8.33;;
7213;SDS011;3648;50.614;13.830;2023-02-22T00:06:46;12.27;;;7.17;;
7213;SDS011;3648;50.614;13.830;2023-02-22T00:09:14;11.97;;;7.20;;
7213;SDS011;3648;50.614;13.830;2023-02-22T00:11:45;11.70;;;7.67;;
7213;SDS011;3648;50.614;13.830;2023-02-22T00:14:12;10.57;;;6.40;;
7213;SDS011;3648;50.614;13.830;2023-02-22T00:16:39;12.33;;;7.63;;
7213;SDS011;3648;50.614;13.830;2023-02-22T00:19:06;10.30;;;7.10;;
7213;SDS011;3648;50.614;13.830;2023-02-22T00:21:34;10.63;;;7.07;;
7213;SDS011;3648;50.614;13.830;2023-02-22T00:24:03;11.90;;;7.00;;
7213;SDS011;3648;50.614;13.830;2023-02-22T00:26:46;13.27;;;8.93;;
7213;SDS011;3648;50.614;13.830;2023-02-22T00:29:14;24.03;;;17.90;;
7213;SDS011;3648;50.614;13.830;2023-02-22T00:31:41;16.20;;;12.17;;
7213;SDS011;3648;50.614;13.830;2023-02-22T00:34:08;16.37;;;10.77;;
7213;SDS011;3648;50.614;13.830;2023-02-22T00:36:35;13.10;;;9.57;;
7213;SDS011;3648;50.614;13.830;2023-02-22T00:39:03;12.87;;;8.40;;
7213;SDS011;3648;50.614;13.830;2023-02-22T00:41:31;11.97;;;7.50;;
7213;SDS011;3648;50.614;13.830;2023-02-22T00:43:58;11.07;;;7.13;;
7213;SDS011;3648;50.614;13.830;2023-02-22T00:46:25;11.33;;;8.10;;
7213;SDS011;3648;50.614;13.830;2023-02-22T00:48:52;17.43;;;10.43;;
7213;SDS011;3648;50.614;13.830;2023-02-22T00:51:19;10.30;;;7.37;;
7213;SDS011;3648;50.614;13.830;2023-02-22T00:53:46;11.53;;;6.53;;
7213;SDS011;3648;50.614;13.830;2023-02-22T00:56:15;8.07;;;6.33;;
7213;SDS011;3648;50.614;13.830;2023-02-22T00:58:42;7.93;;;6.37;;
7213;SDS011;3648;50.614;13.830;2023-02-22T01:01:09;9.10;;;6.10;;
7213;SDS011;3648;50.614;13.830;2023-02-22T01:03:36;9.27;;;6.23;;
7213;SDS011;3648;50.614;13.830;2023-02-22T01:06:05;7.43;;;5.30;;
7213;SDS011;3648;50.614;13.830;2023-02-22T01:08:32;9.00;;;5.20;;
7213;SDS011;3648;50.614;13.830;2023-02-22T01:10:59;8.47;;;6.00;;
7213;SDS011;3648;50.614;13.830;2023-02-22T01:13:27;8.93;;;6.37;;
7213;SDS011;3648;50.614;13.830;2023-02-22T01:15:54;9.20;;;6.03;;
7213;SDS011;3648;50.614;13.830;2023-02-22T01:18:21;8.07;;;5.90;;
7213;SDS011;3648;50.614;13.830;2023-02-22T01:20:49;9.27;;;6.07;;
7213;SDS011;3648;50.614;13.830;2023-02-22T01:23:16;8.00;;;6.10;;
7213;SDS011;3648;50.614;13.830;2023-02-22T01:25:43;9.23;;;5.77;;
7213;SDS011;3648;50.614;13.830;2023-02-22T01:28:10;7.10;;;5.93;;
7213;SDS011;3648;50.614;13.830;2023-02-22T01:30:39;9.73;;;6.40;;
7213;SDS011;3648;50.614;13.830;2023-02-22T01:33:06;9.10;;;5.40;;
7213;SDS011;3648;50.614;13.830;2023-02-22T01:35:34;9.67;;;6.63;;
7213;SDS011;3648;50.614;13.830;2023-02-22T01:38:05;6.70;;;5.07;;
7213;SDS011;3648;50.614;13.830;2023-02-22T01:40:33;8.40;;;5.87;;
7213;SDS011;3648;50.614;13.830;2023-02-22T01:43:03;6.87;;;5.80;;
7213;SDS011;3648;50.614;13.830;2023-02-22T01:45:48;6.50;;;5.13;;
7213;SDS011;3648;50.614;13.830;2023-02-22T01:48:25;7.17;;;5.30;;
7213;SDS011;3648;50.614;13.830;2023-02-22T01:50:56;9.00;;;5.00;;
7213;SDS011;3648;50.614;13.830;2023-02-22T01:53:27;7.03;;;5.40;;
7213;SDS011;3648;50.614;13.830;2023-02-22T01:55:57;6.77;;;5.20;;
7213;SDS011;3648;50.614;13.830;2023-02-22T01:58:24;6.93;;;5.33;;
7213;SDS011;3648;50.614;13.830;2023-02-22T02:00:55;8.07;;;5.80;;
7213;SDS011;3648;50.614;13.830;2023-02-22T02:03:23;7.63;;;5.47;;
7213;SDS011;3648;50.614;13.830;2023-02-22T02:05:55;6.97;;;5.40;;
7213;SDS011;3648;50.614;13.830;2023-02-22T02:08:28;9.17;;;6.00;;
7213;SDS011;3648;50.614;13.830;2023-02-22T02:11:01;8.40;;;6.20;;
7213;SDS011;3648;50.614;13.830;2023-02-22T02:13:29;9.40;;;6.27;;
7213;SDS011;3648;50.614;13.830;2023-02-22T02:15:58;8.03;;;6.10;;
7213;SDS011;3648;50.614;13.830;2023-02-22T02:18:25;7.10;;;5.57;;
7213;SDS011;3648;50.614;13.830;2023-02-22T02:20:59;7.23;;;6.10;;
7213;SDS011;3648;50.614;13.830;2023-02-22T02:27:17;6.73;;;5.80;;
7213;SDS011;3648;50.614;13.830;2023-02-22T02:30:00;8.30;;;5.63;;
7213;SDS011;3648;50.614;13.830;2023-02-22T02:32:52;7.93;;;6.00;;
7213;SDS011;3648;50.614;13.830;2023-02-22T02:35:27;7.13;;;5.83;;
7213;SDS011;3648;50.614;13.830;2023-02-22T02:38:01;6.90;;;5.50;;
7213;SDS011;3648;50.614;13.830;2023-02-22T02:40:34;6.53;;;5.10;;
7213;SDS011;3648;50.614;13.830;2023-02-22T02:43:07;7.40;;;6.07;;
7213;SDS011;3648;50.614;13.830;2023-02-22T02:45:40;8.03;;;5.37;;
7213;SDS011;3648;50.614;13.830;2023-02-22T02:48:14;6.13;;;4.80;;
7213;SDS011;3648;50.614;13.830;2023-02-22T02:50:46;8.33;;;5.87;;
7213;SDS011;3648;50.614;13.830;2023-02-22T02:53:15;6.67;;;5.30;;
7213;SDS011;3648;50.614;13.830;2023-02-22T02:55:46;8.37;;;5.67;;
7213;SDS011;3648;50.614;13.830;2023-02-22T02:58:16;6.77;;;5.90;;
7213;SDS011;3648;50.614;13.830;2023-02-22T03:00:45;15.43;;;9.50;;
7213;SDS011;3648;50.614;13.830;2023-02-22T03:06:19;13.27;;;8.97;;
7213;SDS011;3648;50.614;13.830;2023-02-22T03:09:01;12.90;;;8.90;;
7213;SDS011;3648;50.614;13.830;2023-02-22T03:11:39;11.80;;;8.50;;
7213;SDS011;3648;50.614;13.830;2023-02-22T03:14:17;11.83;;;7.67;;
7213;SDS011;3648;50.614;13.830;2023-02-22T03:16:51;11.83;;;7.80;;
7213;SDS011;3648;50.614;13.830;2023-02-22T03:19:29;11.40;;;7.63;;
7213;SDS011;3648;50.614;13.830;2023-02-22T03:22:00;12.80;;;8.60;;
7213;SDS011;3648;50.614;13.830;2023-02-22T03:24:35;15.70;;;9.40;;
7213;SDS011;3648;50.614;13.830;2023-02-22T03:27:07;14.30;;;8.63;;
7213;SDS011;3648;50.614;13.830;2023-02-22T03:29:40;16.60;;;9.07;;
7213;SDS011;3648;50.614;13.830;2023-02-22T03:32:11;10.53;;;8.03;;
7213;SDS011;3648;50.614;13.830;2023-02-22T03:34:44;13.00;;;8.60;;
7213;SDS011;3648;50.614;13.830;2023-02-22T03:37:18;12.27;;;8.00;;
7213;SDS011;3648;50.614;13.830;2023-02-22T03:39:48;11.23;;;7.73;;
7213;SDS011;3648;50.614;13.830;2023-02-22T03:42:19;13.83;;;8.80;;
7213;SDS011;3648;50.614;13.830;2023-02-22T03:44:50;13.23;;;8.37;;
7213;SDS011;3648;50.614;13.830;2023-02-22T03:47:24;12.47;;;8.57;;
7213;SDS011;3648;50.614;13.830;2023-02-22T03:49:57;11.47;;;8.13;;
7213;SDS011;3648;50.614;13.830;2023-02-22T03:52:31;12.40;;;7.90;;
7213;SDS011;3648;50.614;13.830;2023-02-22T03:54:59;10.50;;;7.93;;
7213;SDS011;3648;50.614;13.830;2023-02-22T03:57:28;15.00;;;9.20;;
7213;SDS011;3648;50.614;13.830;2023-02-22T03:59:59;11.40;;;8.63;;
7213;SDS011;3648;50.614;13.830;2023-02-22T04:02:26;11.13;;;7.90;;
7213;SDS011;3648;50.614;13.830;2023-02-22T04:04:53;9.40;;;8.10;;
7213;SDS011;3648;50.614;13.830;2023-02-22T04:07:21;9.47;;;7.63;;
7213;SDS011;3648;50.614;13.830;2023-02-22T04:09:48;7.93;;;6.80;;
7213;SDS011;3648;50.614;13.830;2023-02-22T04:12:15;10.73;;;7.17;;
7213;SDS011;3648;50.614;13.830;2023-02-22T04:14:42;10.23;;;7.53;;
7213;SDS011;3648;50.614;13.830;2023-02-22T04:17:09;10.73;;;7.77;;
7213;SDS011;3648;50.614;13.830;2023-02-22T04:19:36;12.60;;;8.77;;
7213;SDS011;3648;50.614;13.830;2023-02-22T04:22:03;13.57;;;8.90;;
7213;SDS011;3648;50.614;13.830;2023-02-22T04:24:32;12.93;;;9.10;;
7213;SDS011;3648;50.614;13.830;2023-02-22T04:26:59;11.73;;;8.60;;
7213;SDS011;3648;50.614;13.830;2023-02-22T04:29:26;13.50;;;9.90;;
7213;SDS011;3648;50.614;13.830;2023-02-22T04:31:53;15.53;;;10.50;;
7213;SDS011;3648;50.614;13.830;2023-02-22T04:34:20;13.80;;;9.70;;
7213;SDS011;3648;50.614;13.830;2023-02-22T04:36:47;14.27;;;10.53;;
7213;SDS011;3648;50.614;13.830;2023-02-22T04:39:14;14.60;;;9.33;;
7213;SDS011;3648;50.614;13.830;2023-02-22T04:41:43;12.40;;;8.83;;
7213;SDS011;3648;50.614;13.830;2023-02-22T04:44:11;12.17;;;8.83;;
7213;SDS011;3648;50.614;13.830;2023-02-22T04:46:38;12.90;;;9.77;;
7213;SDS011;3648;50.614;13.830;2023-02-22T04:49:05;16.73;;;9.03;;
7213;SDS011;3648;50.614;13.830;2023-02-22T04:51:32;10.77;;;7.63;;
7213;SDS011;3648;50.614;13.830;2023-02-22T04:54:00;10.77;;;8.20;;
7213;SDS011;3648;50.614;13.830;2023-02-22T04:56:27;10.80;;;8.30;;
7213;SDS011;3648;50.614;13.830;2023-02-22T04:58:55;8.83;;;7.60;;
7213;SDS011;3648;50.614;13.830;2023-02-22T05:01:22;12.60;;;9.13;;
7213;SDS011;3648;50.614;13.830;2023-02-22T05:03:49;17.87;;;8.60;;
7213;SDS011;3648;50.614;13.830;2023-02-22T05:06:16;12.60;;;8.87;;
7213;SDS011;3648;50.614;13.830;2023-02-22T05:08:44;18.10;;;13.47;;
7213;SDS011;3648;50.614;13.830;2023-02-22T05:11:11;24.17;;;15.47;;
7213;SDS011;3648;50.614;13.830;2023-02-22T05:13:38;23.03;;;17.93;;
7213;SDS011;3648;50.614;13.830;2023-02-22T05:16:07;25.13;;;20.13;;
7213;SDS011;3648;50.614;13.830;2023-02-22T05:18:35;25.97;;;19.17;;
7213;SDS011;3648;50.614;13.830;2023-02-22T05:21:02;19.40;;;13.20;;
7213;SDS011;3648;50.614;13.830;2023-02-22T05:23:29;14.40;;;11.17;;
7213;SDS011;3648;50.614;13.830;2023-02-22T05:25:56;16.17;;;10.43;;
7213;SDS011;3648;50.614;13.830;2023-02-22T05:28:23;14.93;;;10.63;;
7213;SDS011;3648;50.614;13.830;2023-02-22T05:30:50;13.43;;;9.50;;
7213;SDS011;3648;50.614;13.830;2023-02-22T05:33:18;14.50;;;9.97;;
7213;SDS011;3648;50.614;13.830;2023-02-22T05:35:45;14.23;;;9.30;;
7213;SDS011;3648;50.614;13.830;2023-02-22T05:38:12;14.43;;;8.83;;
7213;SDS011;3648;50.614;13.830;2023-02-22T05:40:40;12.57;;;9.23;;
7213;SDS011;3648;50.614;13.830;2023-02-22T05:43:08;14.67;;;9.40;;
7213;SDS011;3648;50.614;13.830;2023-02-22T05:45:35;14.57;;;9.57;;
7213;SDS011;3648;50.614;13.830;2023-02-22T05:48:03;21.20;;;11.90;;
7213;SDS011;3648;50.614;13.830;2023-02-22T05:50:32;19.23;;;12.13;;
7213;SDS011;3648;50.614;13.830;2023-02-22T05:52:59;24.37;;;13.37;;
7213;SDS011;3648;50.614;13.830;2023-02-22T05:55:27;21.90;;;12.87;;
7213;SDS011;3648;50.614;13.830;2023-02-22T05:57:54;18.63;;;11.27;;
7213;SDS011;3648;50.614;13.830;2023-02-22T06:00:23;16.20;;;10.27;;
7213;SDS011;3648;50.614;13.830;2023-02-22T06:02:54;17.80;;;10.47;;
7213;SDS011;3648;50.614;13.830;2023-02-22T06:05:22;18.30;;;10.53;;
7213;SDS011;3648;50.614;13.830;2023-02-22T06:07:51;14.03;;;8.87;;
7213;SDS011;3648;50.614;13.830;2023-02-22T06:10:18;13.40;;;8.83;;
7213;SDS011;3648;50.614;13.830;2023-02-22T06:12:45;10.20;;;7.83;;
7213;SDS011;3648;50.614;13.830;2023-02-22T06:15:13;17.37;;;10.67;;
7213;SDS011;3648;50.614;13.830;2023-02-22T06:17:40;26.77;;;19.90;;
7213;SDS011;3648;50.614;13.830;2023-02-22T06:20:08;82.50;;;58.53;;
7213;SDS011;3648;50.614;13.830;2023-02-22T06:22:36;93.00;;;58.80;;
7213;SDS011;3648;50.614;13.830;2023-02-22T06:25:07;64.13;;;42.27;;
7213;SDS011;3648;50.614;13.830;2023-02-22T06:27:35;52.43;;;36.87;;
7213;SDS011;3648;50.614;13.830;2023-02-22T06:30:02;46.93;;;29.67;;
7213;SDS011;3648;50.614;13.830;2023-02-22T06:32:30;37.77;;;25.17;;
7213;SDS011;3648;50.614;13.830;2023-02-22T06:34:57;34.93;;;22.37;;
7213;SDS011;3648;50.614;13.830;2023-02-22T06:37:24;31.80;;;19.47;;
7213;SDS011;3648;50.614;13.830;2023-02-22T06:39:51;27.33;;;17.80;;
7213;SDS011;3648;50.614;13.830;2023-02-22T06:42:19;26.57;;;17.27;;
7213;SDS011;3648;50.614;13.830;2023-02-22T06:44:46;27.67;;;17.70;;
7213;SDS011;3648;50.614;13.830;2023-02-22T06:47:13;23.13;;;15.60;;
7213;SDS011;3648;50.614;13.830;2023-02-22T06:49:40;24.83;;;15.70;;
7213;SDS011;3648;50.614;13.830;2023-02-22T06:52:07;18.60;;;12.37;;
7213;SDS011;3648;50.614;13.830;2023-02-22T06:54:35;12.97;;;9.63;;
7213;SDS011;3648;50.614;13.830;2023-02-22T06:57:02;13.07;;;10.40;;
7213;SDS011;3648;50.614;13.830;2023-02-22T06:59:30;13.57;;;8.87;;
7213;SDS011;3648;50.614;13.830;2023-02-22T07:01:57;14.43;;;9.57;;
7213;SDS011;3648;50.614;13.830;2023-02-22T07:04:24;14.00;;;7.87;;
7213;SDS011;3648;50.614;13.830;2023-02-22T07:06:51;10.97;;;8.23;;
7213;SDS011;3648;50.614;13.830;2023-02-22T07:09:18;11.60;;;7.83;;
7213;SDS011;3648;50.614;13.830;2023-02-22T07:11:45;13.37;;;8.60;;
7213;SDS011;3648;50.614;13.830;2023-02-22T07:14:14;10.53;;;7.97;;
7213;SDS011;3648;50.614;13.830;2023-02-22T07:16:43;13.07;;;7.80;;
7213;SDS011;3648;50.614;13.830;2023-02-22T07:19:10;9.13;;;7.43;;
7213;SDS011;3648;50.614;13.830;2023-02-22T07:21:37;8.17;;;6.93;;
7213;SDS011;3648;50.614;13.830;2023-02-22T07:24:04;9.63;;;7.40;;
7213;SDS011;3648;50.614;13.830;2023-02-22T07:26:33;13.37;;;7.60;;
7213;SDS011;3648;50.614;13.830;2023-02-22T07:29:04;11.43;;;7.47;;
7213;SDS011;3648;50.614;13.830;2023-02-22T07:31:33;10.33;;;7.43;;
7213;SDS011;3648;50.614;13.830;2023-02-22T07:34:02;11.07;;;7.93;;
7213;SDS011;3648;50.614;13.830;2023-02-22T07:36:29;10.73;;;7.33;;
7213;SDS011;3648;50.614;13.830;2023-02-22T07:38:56;10.13;;;6.93;;
7213;SDS011;3648;50.614;13.830;2023-02-22T07:41:23;9.97;;;7.17;;
7213;SDS011;3648;50.614;13.830;2023-02-22T07:43:51;11.13;;;7.43;;
7213;SDS011;3648;50.614;13.830;2023-02-22T07:46:18;9.17;;;7.30;;
7213;SDS011;3648;50.614;13.830;2023-02-22T07:48:45;8.83;;;7.10;;
7213;SDS011;3648;50.614;13.830;2023-02-22T07:51:14;7.73;;;6.80;;
7213;SDS011;3648;50.614;13.830;2023-02-22T07:53:44;8.57;;;6.87;;
7213;SDS011;3648;50.614;13.830;2023-02-22T07:56:11;9.90;;;7.10;;
7213;SDS011;3648;50.614;13.830;2023-02-22T07:58:38;9.10;;;6.63;;
7213;SDS011;3648;50.614;13.830;2023-02-22T08:01:05;9.30;;;7.30;;
7213;SDS011;3648;50.614;13.830;2023-02-22T08:03:33;10.07;;;7.90;;
7213;SDS011;3648;50.614;13.830;2023-02-22T08:06:02;9.60;;;7.17;;
7213;SDS011;3648;50.614;13.830;2023-02-22T08:08:32;11.80;;;8.03;;
7213;SDS011;3648;50.614;13.830;2023-02-22T08:10:59;11.07;;;8.43;;
7213;SDS011;3648;50.614;13.830;2023-02-22T08:13:26;11.30;;;8.87;;
7213;SDS011;3648;50.614;13.830;2023-02-22T08:15:53;10.37;;;8.73;;
7213;SDS011;3648;50.614;13.830;2023-02-22T08:18:23;26.07;;;19.20;;
7213;SDS011;3648;50.614;13.830;2023-02-22T08:20:51;35.20;;;24.77;;
7213;SDS011;3648;50.614;13.830;2023-02-22T08:23:19;27.33;;;19.00;;
7213;SDS011;3648;50.614;13.830;2023-02-22T08:25:50;27.73;;;17.87;;
7213;SDS011;3648;50.614;13.830;2023-02-22T08:28:18;28.27;;;18.77;;
7213;SDS011;3648;50.614;13.830;2023-02-22T08:30:47;27.13;;;15.93;;
7213;SDS011;3648;50.614;13.830;2023-02-22T08:33:15;22.33;;;16.37;;
7213;SDS011;3648;50.614;13.830;2023-02-22T08:35:44;28.03;;;20.20;;
7213;SDS011;3648;50.614;13.830;2023-02-22T08:38:14;26.33;;;18.27;;
7213;SDS011;3648;50.614;13.830;2023-02-22T08:40:43;23.10;;;16.67;;
7213;SDS011;3648;50.614;13.830;2023-02-22T08:43:12;23.30;;;15.60;;
7213;SDS011;3648;50.614;13.830;2023-02-22T08:45:39;19.67;;;13.37;;
7213;SDS011;3648;50.614;13.830;2023-02-22T08:48:06;15.23;;;11.27;;
7213;SDS011;3648;50.614;13.830;2023-02-22T08:50:33;13.20;;;10.53;;
7213;SDS011;3648;50.614;13.830;2023-02-22T08:53:03;11.37;;;9.00;;
7213;SDS011;3648;50.614;13.830;2023-02-22T08:55:31;11.83;;;9.13;;
7213;SDS011;3648;50.614;13.830;2023-02-22T08:58:00;10.57;;;8.93;;
7213;SDS011;3648;50.614;13.830;2023-02-22T09:00:29;11.90;;;7.93;;
7213;SDS011;3648;50.614;13.830;2023-02-22T09:02:58;11.23;;;9.33;;
7213;SDS011;3648;50.614;13.830;2023-02-22T09:05:25;10.30;;;8.33;;
7213;SDS011;3648;50.614;13.830;2023-02-22T09:07:52;12.97;;;8.43;;
7213;SDS011;3648;50.614;13.830;2023-02-22T09:10:20;15.23;;;9.80;;
7213;SDS011;3648;50.614;13.830;2023-02-22T09:12:48;12.07;;;10.83;;
7213;SDS011;3648;50.614;13.830;2023-02-22T09:15:16;11.67;;;9.97;;
7213;SDS011;3648;50.614;13.830;2023-02-22T09:17:45;10.40;;;9.10;;
7213;SDS011;3648;50.614;13.830;2023-02-22T09:20:12;9.80;;;8.70;;
7213;SDS011;3648;50.614;13.830;2023-02-22T09:22:42;11.07;;;8.13;;
7213;SDS011;3648;50.614;13.830;2023-02-22T09:25:10;11.47;;;8.03;;
7213;SDS011;3648;50.614;13.830;2023-02-22T09:27:37;11.37;;;8.47;;
7213;SDS011;3648;50.614;13.830;2023-02-22T09:30:06;9.93;;;8.10;;
7213;SDS011;3648;50.614;13.830;2023-02-22T09:32:36;9.63;;;7.60;;
7213;SDS011;3648;50.614;13.830;2023-02-22T09:35:05;10.20;;;7.87;;
7213;SDS011;3648;50.614;13.830;2023-02-22T09:37:33;11.80;;;9.77;;
7213;SDS011;3648;50.614;13.830;2023-02-22T09:39:59;16.07;;;13.43;;
7213;SDS011;3648;50.614;13.830;2023-02-22T09:42:30;23.97;;;17.10;;
7213;SDS011;3648;50.614;13.830;2023-02-22T09:45:02;25.87;;;18.10;;
7213;SDS011;3648;50.614;13.830;2023-02-22T09:47:40;28.07;;;18.07;;
7213;SDS011;3648;50.614;13.830;2023-02-22T09:50:12;31.90;;;19.07;;
7213;SDS011;3648;50.614;13.830;2023-02-22T09:52:42;28.10;;;18.77;;
7213;SDS011;3648;50.614;13.830;2023-02-22T09:55:21;29.63;;;19.27;;
7213;SDS011;3648;50.614;13.830;2023-02-22T09:57:55;31.10;;;20.97;;
7213;SDS011;3648;50.614;13.830;2023-02-22T10:00:26;34.57;;;25.13;;
7213;SDS011;3648;50.614;13.830;2023-02-22T10:02:59;36.20;;;25.33;;
7213;SDS011;3648;50.614;13.830;2023-02-22T10:05:36;32.77;;;22.33;;
7213;SDS011;3648;50.614;13.830;2023-02-22T10:08:08;27.00;;;18.77;;
7213;SDS011;3648;50.614;13.830;2023-02-22T10:10:38;30.37;;;21.60;;
7213;SDS011;3648;50.614;13.830;2023-02-22T10:13:11;27.57;;;18.63;;
7213;SDS011;3648;50.614;13.830;2023-02-22T10:15:48;26.50;;;18.10;;
7213;SDS011;3648;50.614;13.830;2023-02-22T10:18:31;30.27;;;21.87;;
7213;SDS011;3648;50.614;13.830;2023-02-22T10:21:15;25.23;;;17.87;;
7213;SDS011;3648;50.614;13.830;2023-02-22T10:23:52;25.93;;;16.73;;
7213;SDS011;3648;50.614;13.830;2023-02-22T10:26:30;18.37;;;13.87;;
7213;SDS011;3648;50.614;13.830;2023-02-22T10:29:02;22.67;;;17.90;;
7213;SDS011;3648;50.614;13.830;2023-02-22T10:31:37;17.73;;;13.40;;
7213;SDS011;3648;50.614;13.830;2023-02-22T10:34:10;14.40;;;11.57;;
7213;SDS011;3648;50.614;13.830;2023-02-22T10:36:42;15.17;;;11.67;;
7213;SDS011;3648;50.614;13.830;2023-02-22T10:39:12;14.87;;;11.40;;
7213;SDS011;3648;50.614;13.830;2023-02-22T10:41:48;14.13;;;12.60;;
7213;SDS011;3648;50.614;13.830;2023-02-22T10:44:18;17.60;;;12.17;;
7213;SDS011;3648;50.614;13.830;2023-02-22T10:46:45;14.57;;;11.77;;
7213;SDS011;3648;50.614;13.830;2023-02-22T10:49:14;18.40;;;15.80;;
7213;SDS011;3648;50.614;13.830;2023-02-22T10:51:48;15.10;;;12.00;;
7213;SDS011;3648;50.614;13.830;2023-02-22T10:54:25;15.30;;;11.03;;
7213;SDS011;3648;50.614;13.830;2023-02-22T10:56:57;11.97;;;9.50;;
7213;SDS011;3648;50.614;13.830;2023-02-22T10:59:26;15.50;;;11.60;;
7213;SDS011;3648;50.614;13.830;2023-02-22T11:01:57;16.73;;;12.10;;
7213;SDS011;3648;50.614;13.830;2023-02-22T11:04:24;15.73;;;11.00;;
7213;SDS011;3648;50.614;13.830;2023-02-22T11:07:07;15.83;;;11.30;;
7213;SDS011;3648;50.614;13.830;2023-02-22T11:09:46;16.57;;;12.87;;
7213;SDS011;3648;50.614;13.830;2023-02-22T11:12:16;13.33;;;10.93;;
7213;SDS011;3648;50.614;13.830;2023-02-22T11:14:45;12.20;;;9.43;;
7213;SDS011;3648;50.614;13.830;2023-02-22T11:17:15;12.73;;;9.40;;
7213;SDS011;3648;50.614;13.830;2023-02-22T11:19:47;19.17;;;15.10;;
7213;SDS011;3648;50.614;13.830;2023-02-22T11:22:20;16.90;;;13.57;;
7213;SDS011;3648;50.614;13.830;2023-02-22T11:24:51;17.77;;;13.43;;
7213;SDS011;3648;50.614;13.830;2023-02-22T11:27:23;14.93;;;11.53;;
7213;SDS011;3648;50.614;13.830;2023-02-22T11:29:57;12.37;;;9.70;;
7213;SDS011;3648;50.614;13.830;2023-02-22T11:32:47;14.30;;;10.50;;
7213;SDS011;3648;50.614;13.830;2023-02-22T11:35:17;11.97;;;9.23;;
7213;SDS011;3648;50.614;13.830;2023-02-22T11:37:57;11.33;;;8.93;;
7213;SDS011;3648;50.614;13.830;2023-02-22T11:40:41;8.97;;;7.70;;
7213;SDS011;3648;50.614;13.830;2023-02-22T11:43:09;10.53;;;8.23;;
7213;SDS011;3648;50.614;13.830;2023-02-22T11:45:54;10.23;;;8.53;;
7213;SDS011;3648;50.614;13.830;2023-02-22T11:48:27;8.20;;;6.57;;
7213;SDS011;3648;50.614;13.830;2023-02-22T11:51:02;10.27;;;7.67;;
7213;SDS011;3648;50.614;13.830;2023-02-22T11:53:45;11.47;;;7.40;;
7213;SDS011;3648;50.614;13.830;2023-02-22T11:56:38;7.10;;;6.37;;
7213;SDS011;3648;50.614;13.830;2023-02-22T11:59:12;8.23;;;6.47;;
7213;SDS011;3648;50.614;13.830;2023-02-22T12:01:51;7.23;;;6.53;;
7213;SDS011;3648;50.614;13.830;2023-02-22T12:04:25;7.33;;;6.53;;
7213;SDS011;3648;50.614;13.830;2023-02-22T12:07:21;7.80;;;6.60;;
7213;SDS011;3648;50.614;13.830;2023-02-22T12:09:59;8.90;;;7.13;;
7213;SDS011;3648;50.614;13.830;2023-02-22T12:12:36;8.70;;;6.83;;
7213;SDS011;3648;50.614;13.830;2023-02-22T12:15:12;7.93;;;6.73;;
7213;SDS011;3648;50.614;13.830;2023-02-22T12:17:49;7.07;;;6.37;;
7213;SDS011;3648;50.614;13.830;2023-02-22T12:20:21;8.00;;;6.70;;
7213;SDS011;3648;50.614;13.830;2023-02-22T12:22:55;7.83;;;6.57;;
7213;SDS011;3648;50.614;13.830;2023-02-22T12:25:30;10.00;;;7.57;;
7213;SDS011;3648;50.614;13.830;2023-02-22T12:28:00;10.10;;;7.60;;
7213;SDS011;3648;50.614;13.830;2023-02-22T12:30:36;10.10;;;7.30;;
7213;SDS011;3648;50.614;13.830;2023-02-22T12:33:08;7.40;;;6.37;;
7213;SDS011;3648;50.614;13.830;2023-02-22T12:35:40;7.83;;;6.60;;
7213;SDS011;3648;50.614;13.830;2023-02-22T12:38:17;8.77;;;6.93;;
7213;SDS011;3648;50.614;13.830;2023-02-22T12:40:51;8.77;;;7.23;;
7213;SDS011;3648;50.614;13.830;2023-02-22T12:43:24;8.13;;;6.67;;
7213;SDS011;3648;50.614;13.830;2023-02-22T12:45:56;6.73;;;6.07;;
7213;SDS011;3648;50.614;13.830;2023-02-22T12:48:40;7.70;;;6.90;;
7213;SDS011;3648;50.614;13.830;2023-02-22T12:51:16;8.00;;;6.87;;
7213;SDS011;3648;50.614;13.830;2023-02-22T12:53:52;8.80;;;7.13;;
7213;SDS011;3648;50.614;13.830;2023-02-22T12:56:29;9.30;;;7.03;;
7213;SDS011;3648;50.614;13.830;2023-02-22T12:59:02;9.63;;;6.93;;
7213;SDS011;3648;50.614;13.830;2023-02-22T13:01:37;8.13;;;6.87;;
7213;SDS011;3648;50.614;13.830;2023-02-22T13:04:08;7.87;;;6.67;;
7213;SDS011;3648;50.614;13.830;2023-02-22T13:06:39;7.93;;;7.00;;
7213;SDS011;3648;50.614;13.830;2023-02-22T13:09:29;9.53;;;7.47;;
7213;SDS011;3648;50.614;13.830;2023-02-22T13:12:08;7.53;;;6.70;;
7213;SDS011;3648;50.614;13.830;2023-02-22T13:14:43;8.27;;;7.17;;
7213;SDS011;3648;50.614;13.830;2023-02-22T13:17:25;8.30;;;6.73;;
7213;SDS011;3648;50.614;13.830;2023-02-22T13:19:58;7.13;;;6.40;;
7213;SDS011;3648;50.614;13.830;2023-02-22T13:22:33;8.03;;;6.70;;
7213;SDS011;3648;50.614;13.830;2023-02-22T13:25:05;9.07;;;6.50;;
7213;SDS011;3648;50.614;13.830;2023-02-22T13:27:39;7.63;;;6.43;;
7213;SDS011;3648;50.614;13.830;2023-02-22T13:30:14;8.90;;;7.57;;
7213;SDS011;3648;50.614;13.830;2023-02-22T13:32:49;9.90;;;7.30;;
7213;SDS011;3648;50.614;13.830;2023-02-22T13:35:51;7.90;;;7.10;;
7213;SDS011;3648;50.614;13.830;2023-02-22T13:41:22;9.57;;;8.00;;
7213;SDS011;3648;50.614;13.830;2023-02-22T13:47:09;9.43;;;7.63;;
7213;SDS011;3648;50.614;13.830;2023-02-22T13:49:46;8.33;;;7.17;;
7213;SDS011;3648;50.614;13.830;2023-02-22T13:52:36;8.00;;;7.20;;
7213;SDS011;3648;50.614;13.830;2023-02-22T13:55:05;8.93;;;7.90;;
7213;SDS011;3648;50.614;13.830;2023-02-22T13:57:40;9.13;;;7.60;;
7213;SDS011;3648;50.614;13.830;2023-02-22T14:00:23;8.83;;;7.93;;
7213;SDS011;3648;50.614;13.830;2023-02-22T14:03:06;9.33;;;8.10;;
7213;SDS011;3648;50.614;13.830;2023-02-22T14:06:08;9.37;;;7.67;;
7213;SDS011;3648;50.614;13.830;2023-02-22T14:08:56;10.07;;;8.07;;
7213;SDS011;3648;50.614;13.830;2023-02-22T14:14:21;8.40;;;7.50;;
7213;SDS011;3648;50.614;13.830;2023-02-22T14:25:52;10.00;;;8.57;;
7213;SDS011;3648;50.614;13.830;2023-02-22T14:28:33;8.27;;;7.27;;
7213;SDS011;3648;50.614;13.830;2023-02-22T14:31:04;8.40;;;7.47;;
7213;SDS011;3648;50.614;13.830;2023-02-22T14:36:25;8.90;;;8.00;;
7213;SDS011;3648;50.614;13.830;2023-02-22T14:38:55;9.23;;;7.77;;
7213;SDS011;3648;50.614;13.830;2023-02-22T14:41:30;8.57;;;7.63;;
7213;SDS011;3648;50.614;13.830;2023-02-22T14:44:00;8.83;;;7.03;;
7213;SDS011;3648;50.614;13.830;2023-02-22T14:46:30;8.27;;;6.73;;
7213;SDS011;3648;50.614;13.830;2023-02-22T14:49:04;9.67;;;7.07;;
7213;SDS011;3648;50.614;13.830;2023-02-22T14:51:40;8.47;;;6.90;;
7213;SDS011;3648;50.614;13.830;2023-02-22T14:54:10;7.23;;;6.50;;
7213;SDS011;3648;50.614;13.830;2023-02-22T14:56:45;7.97;;;6.43;;
7213;SDS011;3648;50.614;13.830;2023-02-22T14:59:21;8.37;;;6.60;;
7213;SDS011;3648;50.614;13.830;2023-02-22T15:01:56;8.93;;;6.93;;
7213;SDS011;3648;50.614;13.830;2023-02-22T15:04:30;8.27;;;7.27;;
7213;SDS011;3648;50.614;13.830;2023-02-22T15:06:59;8.30;;;7.27;;
7213;SDS011;3648;50.614;13.830;2023-02-22T15:09:44;10.50;;;7.43;;
7213;SDS011;3648;50.614;13.830;2023-02-22T15:12:14;10.63;;;8.00;;
7213;SDS011;3648;50.614;13.830;2023-02-22T15:14:48;8.07;;;6.97;;
7213;SDS011;3648;50.614;13.830;2023-02-22T15:17:16;8.97;;;7.07;;
7213;SDS011;3648;50.614;13.830;2023-02-22T15:19:46;7.77;;;6.93;;
7213;SDS011;3648;50.614;13.830;2023-02-22T15:22:19;9.03;;;7.30;;
7213;SDS011;3648;50.614;13.830;2023-02-22T15:24:54;8.57;;;6.90;;
7213;SDS011;3648;50.614;13.830;2023-02-22T15:27:24;9.23;;;6.60;;
7213;SDS011;3648;50.614;13.830;2023-02-22T15:29:55;9.77;;;6.73;;
7213;SDS011;3648;50.614;13.830;2023-02-22T15:32:29;7.40;;;6.67;;
7213;SDS011;3648;50.614;13.830;2023-02-22T15:35:06;8.53;;;7.03;;
7213;SDS011;3648;50.614;13.830;2023-02-22T15:37:39;8.20;;;6.80;;
7213;SDS011;3648;50.614;13.830;2023-02-22T15:40:11;8.00;;;6.70;;
7213;SDS011;3648;50.614;13.830;2023-02-22T15:42:44;7.73;;;6.10;;